createdAt,value
2024-03-09T00:03:53.256Z,8.97
2024-03-09T00:08:56.618Z,12.07
2024-03-09T00:14:00.139Z,7.83
2024-03-09T00:19:04.784Z,12.40
2024-03-09T00:24:10.459Z,14.63
2024-03-09T00:29:13.776Z,15.17
2024-03-09T00:34:16.166Z,13.40
2024-03-09T00:39:19.559Z,16.07
2024-03-09T00:44:21.906Z,22.27
2024-03-09T00:49:24.261Z,17.63
2024-03-09T00:54:28.298Z,20.87
2024-03-09T00:59:31.997Z,18.17
2024-03-09T01:04:34.112Z,28.50
2024-03-09T01:09:37.482Z,23.73
2024-03-09T01:14:40.957Z,20.70
2024-03-09T01:19:42.803Z,24.93
2024-03-09T01:24:47.088Z,26.47
2024-03-09T01:29:49.250Z,22.80
2024-03-09T01:34:51.597Z,31.03
2024-03-09T01:39:55.428Z,25.90
2024-03-09T01:45:05.596Z,20.90
2024-03-09T01:50:12.839Z,20.23
2024-03-09T01:55:17.641Z,22.87
2024-03-09T02:00:22.271Z,25.30
2024-03-09T02:05:26.342Z,25.77
2024-03-09T02:10:30.527Z,20.40
2024-03-09T02:15:34.485Z,21.30
2024-03-09T02:20:38.725Z,20.93
2024-03-09T02:25:42.357Z,18.27
2024-03-09T02:30:49.688Z,22.17
2024-03-09T02:35:51.777Z,22.67
2024-03-09T02:40:55.532Z,24.50
2024-03-09T02:45:57.798Z,27.00
2024-03-09T02:50:59.877Z,25.57
2024-03-09T02:56:05.057Z,26.43
2024-03-09T03:01:08.735Z,26.13
2024-03-09T03:06:11.153Z,24.47
2024-03-09T03:11:16.258Z,24.63
2024-03-09T03:16:27.422Z,22.47
2024-03-09T03:21:30.226Z,24.23
2024-03-09T03:26:33.744Z,21.33
2024-03-09T03:31:37.011Z,19.93
2024-03-09T03:36:39.764Z,23.73
2024-03-09T03:41:43.811Z,23.70
2024-03-09T03:46:46.096Z,19.20
2024-03-09T03:51:48.421Z,29.17
2024-03-09T03:56:52.745Z,17.83
2024-03-09T04:01:55.107Z,22.57
2024-03-09T04:06:57.269Z,23.03
2024-03-09T04:12:01.917Z,19.93
2024-03-09T04:17:04.212Z,24.80
2024-03-09T04:22:07.140Z,21.43
2024-03-09T04:27:11.555Z,30.00
2024-03-09T04:32:15.404Z,20.57
2024-03-09T04:37:26.842Z,19.30
2024-03-09T04:42:30.690Z,18.13
2024-03-09T04:47:34.495Z,15.60
2024-03-09T04:52:37.148Z,22.33
2024-03-09T04:57:44.540Z,21.23
2024-03-09T05:02:47.286Z,19.97
2024-03-09T05:07:51.166Z,20.57
2024-03-09T05:12:58.927Z,28.67
2024-03-09T05:18:01.724Z,21.27
2024-03-09T05:23:05.958Z,19.50
2024-03-09T05:28:14.328Z,22.73
2024-03-09T05:33:17.785Z,24.10
2024-03-09T05:38:21.715Z,21.17
2024-03-09T05:43:25.509Z,19.00
2024-03-09T05:48:27.583Z,19.00
2024-03-09T05:53:29.556Z,17.40
2024-03-09T05:58:34.391Z,20.23
2024-03-09T06:03:40.025Z,23.93
2024-03-09T06:08:44.612Z,19.20
2024-03-09T06:13:49.893Z,25.63
2024-03-09T06:18:52.314Z,22.50
2024-03-09T06:23:54.598Z,23.47
2024-03-09T06:28:58.095Z,30.77
2024-03-09T06:34:00.446Z,32.07
2024-03-09T06:39:07.393Z,28.77
2024-03-09T06:44:15.773Z,31.13
2024-03-09T06:49:19.267Z,27.30
2024-03-09T06:54:21.276Z,27.70
2024-03-09T06:59:25.089Z,31.30
2024-03-09T07:04:28.665Z,25.17
2024-03-09T07:09:30.972Z,22.77
2024-03-09T07:14:34.623Z,26.57
2024-03-09T07:19:38.419Z,32.90
2024-03-09T07:24:42.834Z,23.00
2024-03-09T07:29:51.338Z,25.27
2024-03-09T07:34:53.511Z,19.33
2024-03-09T07:39:55.935Z,23.03
2024-03-09T07:44:59.644Z,21.73
2024-03-09T07:50:01.818Z,21.93
2024-03-09T07:55:04.267Z,19.00
2024-03-09T08:00:11.304Z,16.90
2024-03-09T08:05:15.699Z,16.87
2024-03-09T08:10:19.710Z,17.10
2024-03-09T08:15:23.038Z,11.80
2024-03-09T08:20:25.757Z,12.57
2024-03-09T08:25:29.194Z,13.73
2024-03-09T08:30:32.676Z,13.97
2024-03-09T08:35:35.809Z,14.90
2024-03-09T08:40:38.105Z,15.50
2024-03-09T08:45:44.163Z,14.37
2024-03-09T08:50:46.395Z,15.67
2024-03-09T08:55:49.364Z,12.60
2024-03-09T09:00:53.057Z,11.70
2024-03-09T09:05:55.581Z,13.87
2024-03-09T09:10:57.908Z,13.02
2024-03-09T09:16:02.992Z,9.68
2024-03-09T09:21:05.321Z,8.65
2024-03-09T09:26:07.845Z,6.30
2024-03-09T09:31:12.972Z,7.90
2024-03-09T09:36:17.400Z,6.55
2024-03-09T09:41:20.180Z,10.10
2024-03-09T09:46:24.771Z,6.45
2024-03-09T09:51:28.427Z,6.38
2024-03-09T09:56:30.570Z,5.32
2024-03-09T10:01:34.354Z,6.25
2024-03-09T10:06:37.387Z,6.30
2024-03-09T10:11:39.767Z,4.63
2024-03-09T10:16:43.681Z,6.95
2024-03-09T10:21:46.973Z,4.30
2024-03-09T10:26:49.088Z,5.28
2024-03-09T10:31:52.956Z,6.47
2024-03-09T10:36:56.472Z,5.05
2024-03-09T10:41:59.613Z,1.80
2024-03-09T10:47:11.174Z,4.18
2024-03-09T10:52:18.217Z,3.55
2024-03-09T10:57:23.291Z,3.17
2024-03-09T11:02:27.798Z,3.42
2024-03-09T11:07:29.890Z,5.90
2024-03-09T11:12:33.019Z,3.00
2024-03-09T11:17:36.782Z,0.00
2024-03-09T11:22:42.961Z,2.75
2024-03-09T11:27:47.174Z,1.60
2024-03-09T11:32:51.925Z,0.10
2024-03-09T11:37:54.424Z,1.53
2024-03-09T11:43:10.984Z,0.20
2024-03-09T11:48:14.740Z,0.22
2024-03-09T11:53:17.072Z,1.27
2024-03-09T11:58:21.968Z,0.10
2024-03-09T12:03:25.964Z,0.40
2024-03-09T12:08:28.485Z,0.30
2024-03-09T12:13:30.471Z,0.87
2024-03-09T12:18:36.016Z,0.00
2024-03-09T12:23:38.315Z,0.00
2024-03-09T12:28:44.891Z,0.00
2024-03-09T12:33:48.917Z,0.68
2024-03-09T12:38:52.311Z,0.10
2024-03-09T12:43:56.792Z,0.05
2024-03-09T12:49:01.982Z,0.30
2024-03-09T12:54:08.392Z,0.00
2024-03-09T12:59:17.933Z,0.10
2024-03-09T13:04:27.394Z,0.00
2024-03-09T13:09:34.770Z,0.03
2024-03-09T13:14:38.801Z,0.30
2024-03-09T13:19:43.214Z,0.10
2024-03-09T13:24:45.646Z,0.07
2024-03-09T13:29:47.694Z,0.68
2024-03-09T13:34:51.071Z,0.10
2024-03-09T13:39:53.428Z,0.10
2024-03-09T13:44:55.767Z,0.20
2024-03-09T13:49:59.743Z,0.10
2024-03-09T13:55:02.638Z,0.10
2024-03-09T14:00:08.657Z,1.13
2024-03-09T14:05:12.322Z,0.10
2024-03-09T14:10:17.073Z,0.10
2024-03-09T14:15:23.701Z,0.10
2024-03-09T14:20:27.734Z,0.23
2024-03-09T14:25:31.422Z,0.00
2024-03-09T14:30:35.722Z,0.50
2024-03-09T14:35:39.731Z,0.10
2024-03-09T14:40:42.609Z,0.40
2024-03-09T14:45:44.859Z,0.00
2024-03-09T14:50:49.171Z,0.10
2024-03-09T14:55:52.336Z,0.53
2024-03-09T15:00:56.619Z,3.80
2024-03-09T15:06:00.441Z,19.57
2024-03-09T15:11:02.826Z,0.37
2024-03-09T15:16:06.372Z,0.57
2024-03-09T15:21:11.167Z,0.20
2024-03-09T15:26:13.519Z,3.80
2024-03-09T15:31:16.498Z,0.40
2024-03-09T15:36:20.430Z,0.00
2024-03-09T15:41:22.922Z,0.10
2024-03-09T15:46:25.208Z,0.00
2024-03-09T15:51:28.539Z,0.00
2024-03-09T15:56:34.743Z,0.10
2024-03-09T16:01:37.691Z,0.30
2024-03-09T16:06:41.779Z,0.00
2024-03-09T16:11:44.313Z,0.37
2024-03-09T16:16:46.825Z,0.77
2024-03-09T16:21:54.759Z,0.20
2024-03-09T16:26:56.793Z,0.83
2024-03-09T16:31:59.155Z,0.40
2024-03-09T16:37:03.153Z,2.07
2024-03-09T16:42:06.688Z,0.10
2024-03-09T16:47:09.238Z,0.30
2024-03-09T16:52:13.231Z,0.10
2024-03-09T16:57:15.236Z,1.00
2024-03-09T17:02:18.007Z,0.97
2024-03-09T17:07:22.202Z,6.67
2024-03-09T17:12:24.453Z,2.07
2024-03-09T17:17:28.084Z,1.37
2024-03-09T17:22:34.186Z,0.20
2024-03-09T17:27:37.096Z,0.30
2024-03-09T17:32:42.181Z,0.17
2024-03-09T17:37:47.837Z,0.27
2024-03-09T17:42:52.846Z,0.53
2024-03-09T17:47:55.178Z,1.00
2024-03-09T17:53:00.500Z,1.63
2024-03-09T17:58:05.063Z,2.20
2024-03-09T18:03:09.443Z,0.60
2024-03-09T18:08:14.527Z,0.97
2024-03-09T18:13:16.682Z,0.30
2024-03-09T18:18:21.504Z,0.40
2024-03-09T18:23:26.398Z,0.30
2024-03-09T18:28:28.570Z,0.20
2024-03-09T18:33:31.067Z,1.53
2024-03-09T18:38:34.975Z,0.83
2024-03-09T18:43:37.775Z,0.60
2024-03-09T18:48:40.623Z,0.70
2024-03-09T18:53:45.961Z,0.13
2024-03-09T18:58:49.125Z,0.57
2024-03-09T19:03:52.099Z,0.87
2024-03-09T19:08:56.342Z,0.47
2024-03-09T19:13:58.527Z,0.30
2024-03-09T19:19:00.864Z,0.27
2024-03-09T19:24:05.748Z,0.20
2024-03-09T19:29:10.563Z,0.20
2024-03-09T19:34:12.932Z,0.17
2024-03-09T19:39:17.786Z,0.10
2024-03-09T19:44:21.874Z,0.57
2024-03-09T19:49:25.124Z,0.47
2024-03-09T19:54:28.969Z,0.37
2024-03-09T19:59:31.146Z,0.10
2024-03-09T20:04:37.650Z,0.10
2024-03-09T20:09:42.886Z,0.90
2024-03-09T20:14:46.233Z,0.17
2024-03-09T20:19:49.015Z,0.10
2024-03-09T20:24:53.271Z,0.10
2024-03-09T20:29:56.415Z,0.10
2024-03-09T20:34:58.774Z,0.23
2024-03-09T20:46:17.281Z,0.23
2024-03-09T20:51:19.909Z,0.37
2024-03-09T20:56:25.465Z,0.20
2024-03-09T21:01:28.195Z,0.10
2024-03-09T21:06:30.840Z,0.10
2024-03-09T21:11:35.734Z,0.20
2024-03-09T21:16:38.208Z,0.17
2024-03-09T21:21:40.469Z,0.10
2024-03-09T21:26:45.259Z,0.53
2024-03-09T21:31:47.608Z,0.40
2024-03-09T21:36:52.585Z,0.10
2024-03-09T21:41:55.992Z,0.10
2024-03-09T21:46:59.902Z,0.10
2024-03-09T21:52:04.448Z,0.60
2024-03-09T21:57:09.607Z,0.30
2024-03-09T22:02:13.367Z,0.10
2024-03-09T22:07:15.827Z,0.00
2024-03-09T22:12:19.475Z,1.70
2024-03-09T22:17:22.378Z,0.10
2024-03-09T22:22:24.382Z,0.53
2024-03-09T22:27:28.322Z,0.00
2024-03-09T22:32:30.355Z,0.10
2024-03-09T22:37:33.156Z,0.10
2024-03-09T22:42:39.780Z,0.67
2024-03-09T22:47:46.186Z,1.03
2024-03-09T22:52:49.319Z,0.07
2024-03-09T22:57:53.442Z,2.57
2024-03-09T23:02:56.068Z,0.10
2024-03-09T23:07:58.641Z,0.20
2024-03-09T23:13:06.344Z,0.10
2024-03-09T23:18:09.673Z,0.07
2024-03-09T23:23:12.356Z,0.30
2024-03-09T23:28:16.378Z,0.00
2024-03-09T23:33:18.474Z,0.00
2024-03-09T23:38:22.774Z,0.10
2024-03-09T23:43:27.947Z,2.23
2024-03-09T23:48:30.028Z,0.67
2024-03-09T23:53:32.021Z,0.03
2024-03-09T23:58:36.250Z,0.10
